Time;durP1;ratioP1;P1;durP2;ratioP2;P2;SDS_P1;SDS_P2;PMS_P1;PMS_P2;Temp;Humidity;BMP_temperature;BMP_pressure;BME280_temperature;BME280_humidity;BME280_pressure;Samples;Min_cycle;Max_cycle;Signal;HPM_P1;HPM_P2
2023/04/07 00:00:49;0.00;0.00;0.62;0.00;0.00;0.62;3.00;2.20;;;24.30;20.70;;;;;;2263801;61;20938;-61
2023/04/07 00:03:34;0.00;0.00;0.62;0.00;0.00;0.62;2.57;2.07;;;24.30;20.70;;;;;;2264587;61;20766;-62
2023/04/07 00:06:20;0.00;0.00;0.62;0.00;0.00;0.62;2.70;2.00;;;24.30;20.70;;;;;;2264240;61;20765;-62
2023/04/07 00:09:05;0.00;0.00;0.62;0.00;0.00;0.62;2.93;2.33;;;24.30;20.70;;;;;;2263922;61;20364;-61
2023/04/07 00:11:50;0.00;0.00;0.62;0.00;0.00;0.62;2.80;2.43;;;24.30;20.70;;;;;;2264096;61;20410;-62
2023/04/07 00:14:35;0.00;0.00;0.62;0.00;0.00;0.62;2.13;1.87;;;24.30;20.70;;;;;;2264629;61;20483;-61
2023/04/07 00:17:19;0.00;0.00;0.62;0.00;0.00;0.62;2.80;2.33;;;24.30;20.70;;;;;;2264009;61;20415;-63
2023/04/07 00:20:06;0.00;0.00;0.62;0.00;0.00;0.62;2.17;1.90;;;24.30;20.70;;;;;;2263934;61;20364;-62
2023/04/07 00:22:52;0.00;0.00;0.62;0.00;0.00;0.62;2.30;1.80;;;24.30;20.70;;;;;;2264064;61;20829;-62
2023/04/07 00:25:37;0.00;0.00;0.62;0.00;0.00;0.62;2.77;1.90;;;24.30;20.80;;;;;;2264504;61;20499;-64
2023/04/07 00:28:21;0.00;0.00;0.62;0.00;0.00;0.62;2.47;2.27;;;24.30;20.70;;;;;;2263593;61;20380;-62
2023/04/07 00:31:06;0.00;0.00;0.62;0.00;0.00;0.62;2.43;2.00;;;24.30;20.70;;;;;;2263948;61;20364;-61
2023/04/07 00:33:51;0.00;0.00;0.62;0.00;0.00;0.62;2.50;2.00;;;24.20;20.70;;;;;;2260984;61;20403;-62
2023/04/07 00:36:38;0.00;0.00;0.62;0.00;0.00;0.62;2.20;1.93;;;24.20;20.70;;;;;;2298925;39;20943;31
2023/04/07 00:39:26;0.00;0.00;0.62;0.00;0.00;0.62;3.50;2.20;;;24.30;20.80;;;;;;2260546;61;20416;-62
2023/04/07 00:42:11;0.00;0.00;0.62;0.00;0.00;0.62;2.03;1.80;;;24.20;20.70;;;;;;2260136;61;20389;-65
2023/04/07 00:44:56;0.00;0.00;0.62;0.00;0.00;0.62;2.20;1.80;;;24.20;20.70;;;;;;2259626;61;21115;-62
2023/04/07 00:47:41;0.00;0.00;0.62;0.00;0.00;0.62;3.40;2.80;;;24.20;20.70;;;;;;2260339;61;20406;-63
2023/04/07 00:50:26;0.00;0.00;0.62;0.00;0.00;0.62;3.13;2.13;;;24.20;20.70;;;;;;2259738;61;20357;-64
2023/04/07 00:53:11;0.00;0.00;0.62;0.00;0.00;0.62;2.60;2.40;;;24.20;20.70;;;;;;2259966;61;20392;-63
2023/04/07 00:55:57;0.00;0.00;0.62;0.00;0.00;0.62;3.00;2.13;;;24.20;20.70;;;;;;2260090;61;20368;-62
2023/04/07 00:58:42;0.00;0.00;0.62;0.00;0.00;0.62;2.90;2.20;;;24.20;20.70;;;;;;2260362;61;20425;-62
2023/04/07 01:01:34;0.00;0.00;0.62;0.00;0.00;0.62;2.20;1.90;;;24.20;20.70;;;;;;2256658;61;20843;-62
2023/04/07 01:04:27;0.00;0.00;0.62;0.00;0.00;0.62;2.30;2.07;;;24.20;20.70;;;;;;2256900;61;20443;-61
2023/04/07 01:07:24;0.00;0.00;0.62;0.00;0.00;0.62;2.60;2.07;;;24.20;20.70;;;;;;2256796;61;20957;-62
2023/04/07 01:10:32;0.00;0.00;0.62;0.00;0.00;0.62;2.33;2.10;;;24.20;21.20;;;;;;2256801;61;20353;-62
2023/04/07 01:13:30;0.00;0.00;0.62;0.00;0.00;0.62;2.30;1.87;;;24.20;20.70;;;;;;2257032;61;20449;-63
2023/04/07 01:16:31;0.00;0.00;0.62;0.00;0.00;0.62;2.60;2.20;;;24.20;20.70;;;;;;2256704;61;20377;-62
2023/04/07 01:19:33;0.00;0.00;0.62;0.00;0.00;0.62;2.07;1.70;;;24.10;20.60;;;;;;2259679;61;20478;-62
2023/04/07 01:22:23;0.00;0.00;0.62;0.00;0.00;0.62;1.93;1.60;;;24.20;20.70;;;;;;2259413;61;20864;-64
2023/04/07 01:25:37;0.00;0.00;0.62;0.00;0.00;0.62;2.63;1.90;;;24.10;20.60;;;;;;2259996;61;20396;-62
2023/04/07 01:31:35;0.00;0.00;0.62;0.00;0.00;0.62;2.63;2.43;;;24.10;20.60;;;;;;2270358;61;20771;-62
2023/04/07 01:34:22;0.00;0.00;0.62;0.00;0.00;0.62;2.40;2.20;;;24.10;20.60;;;;;;2272210;61;20898;-62
2023/04/07 01:37:08;0.00;0.00;0.62;0.00;0.00;0.62;2.07;1.87;;;24.10;20.60;;;;;;2271929;61;20410;-60
2023/04/07 01:39:53;0.00;0.00;0.62;0.00;0.00;0.62;3.20;2.30;;;24.10;20.60;;;;;;2271990;60;20366;-62
2023/04/07 01:42:41;0.00;0.00;0.62;0.00;0.00;0.62;2.33;1.93;;;24.10;20.60;;;;;;2272237;61;20878;-61
2023/04/07 01:45:27;0.00;0.00;0.62;0.00;0.00;0.62;2.70;2.13;;;24.10;20.60;;;;;;2268629;60;20390;-63
2023/04/07 01:48:15;0.00;0.00;0.62;0.00;0.00;0.62;2.80;2.20;;;24.10;20.60;;;;;;2272373;61;20370;-62
2023/04/07 01:51:00;0.00;0.00;0.62;0.00;0.00;0.62;2.83;2.40;;;24.10;20.60;;;;;;2272054;61;20459;-62
2023/04/07 01:53:46;0.00;0.00;0.62;0.00;0.00;0.62;2.47;1.83;;;24.00;20.60;;;;;;2265954;61;20389;-63
2023/04/07 01:56:31;0.00;0.00;0.62;0.00;0.00;0.62;2.20;2.00;;;24.10;20.60;;;;;;2272168;61;20439;-60
2023/04/07 01:59:18;0.00;0.00;0.62;0.00;0.00;0.62;3.17;2.20;;;24.00;20.60;;;;;;2268217;61;20926;-63
2023/04/07 02:02:03;0.00;0.00;0.62;0.00;0.00;0.62;2.57;2.10;;;24.10;20.60;;;;;;2269044;60;20396;-63
2023/04/07 02:04:55;0.00;0.00;0.62;0.00;0.00;0.62;2.10;1.70;;;24.00;20.50;;;;;;2268989;61;20385;-62
2023/04/07 02:07:48;0.00;0.00;0.62;0.00;0.00;0.62;3.00;1.70;;;24.00;20.50;;;;;;2268597;61;20386;-62
2023/04/07 02:10:37;0.00;0.00;0.62;0.00;0.00;0.62;2.50;2.20;;;24.00;20.60;;;;;;2268494;61;20906;-63
2023/04/07 02:13:23;0.00;0.00;0.62;0.00;0.00;0.62;2.60;2.10;;;24.00;20.50;;;;;;2269030;61;20906;-63
2023/04/07 02:16:10;0.00;0.00;0.62;0.00;0.00;0.62;2.60;2.03;;;24.00;20.60;;;;;;2268654;61;20404;-62
2023/04/07 02:18:56;0.00;0.00;0.62;0.00;0.00;0.62;2.50;2.10;;;24.00;20.60;;;;;;2268558;61;20386;-63
2023/04/07 02:21:44;0.00;0.00;0.62;0.00;0.00;0.62;2.00;1.60;;;24.00;20.50;;;;;;2271831;61;20378;-63
2023/04/07 02:24:29;0.00;0.00;0.62;0.00;0.00;0.62;2.33;1.93;;;24.00;20.60;;;;;;2272239;60;20377;-63
2023/04/07 02:27:14;0.00;0.00;0.62;0.00;0.00;0.62;2.50;2.10;;;24.00;20.50;;;;;;2268798;61;20401;-63
2023/04/07 02:29:58;0.00;0.00;0.62;0.00;0.00;0.62;2.63;2.10;;;24.00;20.60;;;;;;2268294;61;20374;-66
2023/04/07 02:32:43;0.00;0.00;0.62;0.00;0.00;0.62;2.40;1.90;;;24.00;20.60;;;;;;2271910;60;20922;-60
2023/04/07 02:35:27;0.00;0.00;0.62;0.00;0.00;0.62;2.63;2.27;;;24.00;20.50;;;;;;2272057;61;20366;-62
2023/04/07 02:38:13;0.00;0.00;0.62;0.00;0.00;0.62;2.70;2.33;;;23.90;20.50;;;;;;2268627;61;20913;-62
2023/04/07 02:40:58;0.00;0.00;0.62;0.00;0.00;0.62;2.70;2.17;;;24.00;20.60;;;;;;2271608;61;20833;-62
2023/04/07 02:43:43;0.00;0.00;0.62;0.00;0.00;0.62;2.10;1.83;;;24.00;20.50;;;;;;2271543;60;20369;-63
2023/04/07 02:46:27;0.00;0.00;0.62;0.00;0.00;0.62;2.13;1.90;;;23.90;20.50;;;;;;2272325;60;20382;-60
2023/04/07 02:49:12;0.00;0.00;0.62;0.00;0.00;0.62;2.73;2.40;;;23.90;20.50;;;;;;2271704;61;20809;-63
2023/04/07 02:51:56;0.00;0.00;0.62;0.00;0.00;0.62;2.47;1.97;;;23.90;20.50;;;;;;2272124;60;20451;-60
2023/04/07 02:54:43;0.00;0.00;0.62;0.00;0.00;0.62;2.60;2.00;;;23.90;20.50;;;;;;2272643;61;20354;-65
2023/04/07 02:57:29;0.00;0.00;0.62;0.00;0.00;0.62;2.60;1.90;;;23.90;20.50;;;;;;2269704;61;20431;-62
2023/04/07 03:00:18;0.00;0.00;0.62;0.00;0.00;0.62;2.10;1.90;;;23.90;20.50;;;;;;2268832;61;20665;-61
2023/04/07 03:03:12;0.00;0.00;0.62;0.00;0.00;0.62;2.37;1.67;;;23.90;20.50;;;;;;2269305;61;20361;-63
2023/04/07 03:06:00;0.00;0.00;0.62;0.00;0.00;0.62;2.43;1.90;;;23.90;20.50;;;;;;2269165;61;20404;-60
2023/04/07 03:08:46;0.00;0.00;0.62;0.00;0.00;0.62;2.47;1.77;;;23.90;20.50;;;;;;2269464;61;20766;-62
2023/04/07 03:11:32;0.00;0.00;0.62;0.00;0.00;0.62;2.00;1.77;;;23.90;20.50;;;;;;2269594;61;20362;-62
2023/04/07 03:14:18;0.00;0.00;0.62;0.00;0.00;0.62;2.40;2.10;;;23.80;20.40;;;;;;2269157;61;20370;-60
2023/04/07 03:17:05;0.00;0.00;0.62;0.00;0.00;0.62;2.40;2.20;;;23.80;20.90;;;;;;2269383;61;20385;-62
2023/04/07 03:19:50;0.00;0.00;0.62;0.00;0.00;0.62;2.23;1.80;;;23.90;20.50;;;;;;2269432;61;20523;-60
2023/04/07 03:22:37;0.00;0.00;0.62;0.00;0.00;0.62;2.27;1.60;;;23.90;20.50;;;;;;2266459;61;20415;-60
2023/04/07 03:25:26;0.00;0.00;0.62;0.00;0.00;0.62;2.97;2.23;;;23.80;20.40;;;;;;2269313;61;20365;-63
2023/04/07 03:28:13;0.00;0.00;0.62;0.00;0.00;0.62;2.10;1.73;;;23.80;20.40;;;;;;2269242;61;20914;-62
2023/04/07 03:30:58;0.00;0.00;0.62;0.00;0.00;0.62;2.57;2.27;;;23.80;20.40;;;;;;2269286;61;20361;-62
2023/04/07 03:33:43;0.00;0.00;0.62;0.00;0.00;0.62;2.17;1.57;;;23.80;20.40;;;;;;2269518;61;20359;-62
2023/04/07 03:36:31;0.00;0.00;0.62;0.00;0.00;0.62;2.00;1.67;;;23.80;20.50;;;;;;2300300;40;20366;-60
2023/04/07 03:39:19;0.00;0.00;0.62;0.00;0.00;0.62;2.30;2.00;;;23.80;20.40;;;;;;2258332;61;20400;-63
2023/04/07 03:42:04;0.00;0.00;0.62;0.00;0.00;0.62;2.73;1.73;;;23.80;20.40;;;;;;2257525;61;20412;-61
2023/04/07 03:44:52;0.00;0.00;0.62;0.00;0.00;0.62;1.80;1.60;;;23.80;20.40;;;;;;2256941;61;20814;-63
2023/04/07 03:47:37;0.00;0.00;0.62;0.00;0.00;0.62;2.13;1.90;;;23.80;20.40;;;;;;2260514;61;20424;-63
2023/04/07 03:50:23;0.00;0.00;0.62;0.00;0.00;0.62;2.37;2.00;;;23.80;20.50;;;;;;2259266;61;20365;-61
2023/04/07 03:53:18;0.00;0.00;0.62;0.00;0.00;0.62;2.30;2.03;;;23.80;20.40;;;;;;2257192;61;20504;-61
2023/04/07 03:56:04;0.00;0.00;0.62;0.00;0.00;0.62;2.30;1.90;;;23.80;20.40;;;;;;2259872;61;20835;-61
2023/04/07 03:59:00;0.00;0.00;0.62;0.00;0.00;0.62;2.10;1.70;;;23.70;20.40;;;;;;2256512;61;20463;-67
2023/04/07 04:01:51;0.00;0.00;0.62;0.00;0.00;0.62;2.43;2.03;;;23.80;20.40;;;;;;2259825;61;20449;-65
2023/04/07 04:04:36;0.00;0.00;0.62;0.00;0.00;0.62;2.20;1.90;;;23.70;20.40;;;;;;2260198;61;20837;-60
2023/04/07 04:07:21;0.00;0.00;0.62;0.00;0.00;0.62;2.37;1.90;;;23.70;20.40;;;;;;2260546;61;20384;-61
2023/04/07 04:10:09;0.00;0.00;0.62;0.00;0.00;0.62;2.43;1.97;;;23.70;20.40;;;;;;2256932;61;20981;-62
2023/04/07 04:13:02;0.00;0.00;0.62;0.00;0.00;0.62;2.33;1.77;;;23.70;20.40;;;;;;2256707;61;20369;-61
2023/04/07 04:15:47;0.00;0.00;0.62;0.00;0.00;0.62;3.00;1.90;;;23.70;20.40;;;;;;2257254;61;20365;-60
2023/04/07 04:18:35;0.00;0.00;0.62;0.00;0.00;0.62;2.20;2.00;;;23.70;20.40;;;;;;2259947;61;20400;-61
2023/04/07 04:21:21;0.00;0.00;0.62;0.00;0.00;0.62;2.20;1.70;;;23.70;20.40;;;;;;2256523;61;20457;-65
2023/04/07 04:24:06;0.00;0.00;0.62;0.00;0.00;0.62;1.90;1.60;;;23.70;20.40;;;;;;2260186;61;20889;-62
2023/04/07 04:26:51;0.00;0.00;0.62;0.00;0.00;0.62;2.27;2.03;;;23.70;20.40;;;;;;2259892;61;20508;-61
2023/04/07 04:29:35;0.00;0.00;0.62;0.00;0.00;0.62;2.37;1.90;;;23.70;20.40;;;;;;2259634;61;20441;-63
2023/04/07 04:32:23;0.00;0.00;0.62;0.00;0.00;0.62;2.47;2.00;;;23.70;20.40;;;;;;2256979;61;20419;-61
2023/04/07 04:35:10;0.00;0.00;0.62;0.00;0.00;0.62;2.93;2.20;;;23.70;20.40;;;;;;2259313;61;20388;-62
2023/04/07 04:38:03;0.00;0.00;0.62;0.00;0.00;0.62;2.20;1.70;;;23.60;20.30;;;;;;2259611;61;20526;-61
2023/04/07 04:40:48;0.00;0.00;0.62;0.00;0.00;0.62;2.37;1.97;;;23.60;20.30;;;;;;2260849;61;20822;-62
2023/04/07 04:43:36;0.00;0.00;0.62;0.00;0.00;0.62;2.20;1.70;;;23.60;20.30;;;;;;2260728;61;20932;-62
2023/04/07 04:46:24;0.00;0.00;0.62;0.00;0.00;0.62;2.27;1.70;;;23.60;20.30;;;;;;2260592;61;20340;-62
2023/04/07 04:49:09;0.00;0.00;0.62;0.00;0.00;0.62;2.20;1.93;;;23.60;20.30;;;;;;2260792;61;20422;-61
2023/04/07 04:51:55;0.00;0.00;0.62;0.00;0.00;0.62;2.13;1.70;;;23.60;20.30;;;;;;2261267;61;20364;-61
2023/04/07 04:54:41;0.00;0.00;0.62;0.00;0.00;0.62;2.47;2.27;;;23.60;20.40;;;;;;2261012;61;20456;-61
2023/04/07 04:57:27;0.00;0.00;0.62;0.00;0.00;0.62;2.47;1.87;;;23.60;20.30;;;;;;2260749;61;20479;-62
2023/04/07 05:00:13;0.00;0.00;0.62;0.00;0.00;0.62;2.97;2.00;;;23.60;20.30;;;;;;2260698;61;20892;-65
2023/04/07 05:03:02;0.00;0.00;0.62;0.00;0.00;0.62;2.77;2.13;;;23.60;20.30;;;;;;2260954;61;20404;-61
2023/04/07 05:05:49;0.00;0.00;0.62;0.00;0.00;0.62;2.10;1.90;;;23.60;20.30;;;;;;2260724;61;20511;-60
2023/04/07 05:08:38;0.00;0.00;0.62;0.00;0.00;0.62;2.40;1.90;;;23.60;20.40;;;;;;2260937;61;20431;-60
2023/04/07 05:11:23;0.00;0.00;0.62;0.00;0.00;0.62;3.10;2.00;;;23.60;20.30;;;;;;2260989;61;20372;-60
2023/04/07 05:14:10;0.00;0.00;0.62;0.00;0.00;0.62;2.03;1.57;;;23.60;20.40;;;;;;2260904;61;20795;-62
2023/04/07 05:17:00;0.00;0.00;0.62;0.00;0.00;0.62;2.37;2.17;;;23.60;20.30;;;;;;2261095;61;20379;-61
2023/04/07 05:19:46;0.00;0.00;0.62;0.00;0.00;0.62;2.13;1.90;;;23.50;20.30;;;;;;2260453;61;20740;-68
2023/04/07 05:22:41;0.00;0.00;0.62;0.00;0.00;0.62;1.90;1.70;;;23.60;20.30;;;;;;2261001;61;20805;-61
2023/04/07 05:25:31;0.00;0.00;0.62;0.00;0.00;0.62;2.50;2.20;;;23.60;20.40;;;;;;2261354;61;21067;-60
2023/04/07 05:28:19;0.00;0.00;0.62;0.00;0.00;0.62;2.23;1.87;;;23.50;20.30;;;;;;2261054;61;20384;-63
2023/04/07 05:31:04;0.00;0.00;0.62;0.00;0.00;0.62;2.60;2.00;;;23.50;20.30;;;;;;2260615;61;20407;-62
2023/04/07 05:33:50;0.00;0.00;0.62;0.00;0.00;0.62;2.00;1.80;;;23.50;20.30;;;;;;2260694;61;20375;-63
2023/04/07 05:36:35;0.00;0.00;0.62;0.00;0.00;0.62;2.50;2.13;;;23.50;20.30;;;;;;2258487;61;20769;-63
2023/04/07 05:39:20;0.00;0.00;0.62;0.00;0.00;0.62;2.30;1.63;;;23.50;20.30;;;;;;2263949;61;20423;-63
2023/04/07 05:42:09;0.00;0.00;0.62;0.00;0.00;0.62;2.00;1.77;;;23.50;20.80;;;;;;2260884;61;20410;-69
2023/04/07 05:44:56;0.00;0.00;0.62;0.00;0.00;0.62;2.30;1.60;;;23.50;20.30;;;;;;2260965;61;20418;-61
2023/04/07 05:47:43;0.00;0.00;0.62;0.00;0.00;0.62;2.33;2.13;;;23.50;20.30;;;;;;2261126;61;20426;-62
2023/04/07 05:50:29;0.00;0.00;0.62;0.00;0.00;0.62;2.10;1.73;;;23.50;20.30;;;;;;2260539;61;20372;-63
2023/04/07 05:53:16;0.00;0.00;0.62;0.00;0.00;0.62;2.37;1.70;;;23.50;20.30;;;;;;2260757;61;20410;-60
2023/04/07 05:56:01;0.00;0.00;0.62;0.00;0.00;0.62;1.90;1.70;;;23.50;20.30;;;;;;2263440;61;20399;-63
2023/04/07 05:59:13;0.00;0.00;0.62;0.00;0.00;0.62;2.63;2.13;;;23.50;20.30;;;;;;2263868;61;20383;-62
2023/04/07 06:01:58;0.00;0.00;0.62;0.00;0.00;0.62;2.00;1.70;;;23.50;20.30;;;;;;2261269;61;20368;-62
2023/04/07 06:04:43;0.00;0.00;0.62;0.00;0.00;0.62;2.30;1.67;;;23.50;20.30;;;;;;2260567;61;20825;-62
2023/04/07 06:07:32;0.00;0.00;0.62;0.00;0.00;0.62;2.77;2.00;;;23.50;20.30;;;;;;2260843;61;20403;-62
2023/04/07 06:10:17;0.00;0.00;0.62;0.00;0.00;0.62;2.20;1.87;;;23.40;20.20;;;;;;2260682;61;20363;-62
2023/04/07 06:13:03;0.00;0.00;0.62;0.00;0.00;0.62;2.20;1.67;;;23.40;20.20;;;;;;2260989;61;20889;-62
2023/04/07 06:15:49;0.00;0.00;0.62;0.00;0.00;0.62;2.80;2.37;;;23.40;20.20;;;;;;2261021;61;20364;-65
2023/04/07 06:18:34;0.00;0.00;0.62;0.00;0.00;0.62;2.97;2.10;;;23.40;20.20;;;;;;2263994;61;20811;-61
2023/04/07 06:21:19;0.00;0.00;0.62;0.00;0.00;0.62;1.90;1.63;;;23.40;20.20;;;;;;2264131;61;20836;-63
2023/04/07 06:24:04;0.00;0.00;0.62;0.00;0.00;0.62;3.10;2.30;;;23.40;20.20;;;;;;2264282;61;20359;-62
2023/04/07 06:26:49;0.00;0.00;0.62;0.00;0.00;0.62;2.00;1.50;;;23.40;20.20;;;;;;2263769;61;20792;-63
2023/04/07 06:29:34;0.00;0.00;0.62;0.00;0.00;0.62;2.40;1.60;;;23.40;20.20;;;;;;2260595;61;20406;-63
2023/04/07 06:32:24;0.00;0.00;0.62;0.00;0.00;0.62;2.77;2.13;;;23.40;20.20;;;;;;2261055;61;20934;-63
2023/04/07 06:35:09;0.00;0.00;0.62;0.00;0.00;0.62;2.43;2.00;;;23.40;20.20;;;;;;2260644;61;20368;-61
2023/04/07 06:37:54;0.00;0.00;0.62;0.00;0.00;0.62;2.10;1.80;;;23.40;20.20;;;;;;2260737;61;20399;-63
2023/04/07 06:40:39;0.00;0.00;0.62;0.00;0.00;0.62;2.57;2.17;;;23.40;20.20;;;;;;2260189;61;20456;-65
2023/04/07 06:43:24;0.00;0.00;0.62;0.00;0.00;0.62;2.17;1.73;;;23.40;20.20;;;;;;2264009;61;20376;-63
2023/04/07 06:46:18;0.00;0.00;0.62;0.00;0.00;0.62;2.20;1.83;;;23.40;20.20;;;;;;2261046;61;20363;-62
2023/04/07 06:49:04;0.00;0.00;0.62;0.00;0.00;0.62;3.10;1.83;;;23.40;20.30;;;;;;2263286;61;20922;-62
2023/04/07 06:51:49;0.00;0.00;0.62;0.00;0.00;0.62;2.83;1.83;;;23.40;20.20;;;;;;2264218;61;20862;-66
2023/04/07 06:54:34;0.00;0.00;0.62;0.00;0.00;0.62;2.70;2.07;;;23.30;20.20;;;;;;2263461;61;20415;-62
2023/04/07 06:57:18;0.00;0.00;0.62;0.00;0.00;0.62;2.97;2.20;;;23.40;20.20;;;;;;2259820;61;20403;-63
2023/04/07 07:00:06;0.00;0.00;0.62;0.00;0.00;0.62;2.73;2.30;;;23.40;20.30;;;;;;2259443;61;20385;-63
2023/04/07 07:02:51;0.00;0.00;0.62;0.00;0.00;0.62;2.40;2.10;;;23.30;20.20;;;;;;2259686;61;20411;-63
2023/04/07 07:05:37;0.00;0.00;0.62;0.00;0.00;0.62;2.87;2.20;;;23.30;20.20;;;;;;2260265;61;20453;-63
2023/04/07 07:08:22;0.00;0.00;0.62;0.00;0.00;0.62;2.60;2.13;;;23.30;20.20;;;;;;2260006;61;20381;-62
2023/04/07 07:11:07;0.00;0.00;0.62;0.00;0.00;0.62;2.30;1.90;;;23.30;20.20;;;;;;2259502;61;20364;-63
2023/04/07 07:13:51;0.00;0.00;0.62;0.00;0.00;0.62;3.10;2.10;;;23.30;20.20;;;;;;2259767;61;20438;-62
2023/04/07 07:16:36;0.00;0.00;0.62;0.00;0.00;0.62;3.33;2.40;;;23.30;20.20;;;;;;2260039;61;21440;-65
2023/04/07 07:19:20;0.00;0.00;0.62;0.00;0.00;0.62;3.77;3.40;;;23.30;20.20;;;;;;2259426;61;20392;-64
2023/04/07 07:22:06;0.00;0.00;0.62;0.00;0.00;0.62;3.20;2.50;;;23.30;20.20;;;;;;2259926;61;20361;-63
2023/04/07 07:24:51;0.00;0.00;0.62;0.00;0.00;0.62;2.60;2.30;;;23.30;20.20;;;;;;2259765;61;20422;-62
2023/04/07 07:27:36;0.00;0.00;0.62;0.00;0.00;0.62;4.33;2.60;;;23.30;20.20;;;;;;2260279;61;20380;-63
2023/04/07 07:30:22;0.00;0.00;0.62;0.00;0.00;0.62;2.87;2.33;;;23.30;20.30;;;;;;2259676;61;20357;-64
2023/04/07 07:33:07;0.00;0.00;0.62;0.00;0.00;0.62;2.50;2.03;;;23.30;20.30;;;;;;2259685;61;20417;-62
2023/04/07 07:35:52;0.00;0.00;0.62;0.00;0.00;0.62;2.80;2.23;;;23.30;20.30;;;;;;2259891;61;20904;-62
2023/04/07 07:38:40;0.00;0.00;0.62;0.00;0.00;0.62;2.40;1.90;;;23.30;20.30;;;;;;2260469;61;20393;-66
2023/04/07 07:41:25;0.00;0.00;0.62;0.00;0.00;0.62;2.80;2.27;;;23.30;20.30;;;;;;2260185;61;20440;-62
2023/04/07 07:44:10;0.00;0.00;0.62;0.00;0.00;0.62;2.53;2.17;;;23.30;20.30;;;;;;2260571;61;20420;-61
2023/04/07 07:46:58;0.00;0.00;0.62;0.00;0.00;0.62;3.10;2.10;;;23.30;20.30;;;;;;2277713;40;20400;-64
2023/04/07 07:49:42;0.00;0.00;0.62;0.00;0.00;0.62;2.60;2.00;;;23.30;20.30;;;;;;2270094;61;20378;-63
2023/04/07 07:52:27;0.00;0.00;0.62;0.00;0.00;0.62;2.47;1.90;;;23.30;20.30;;;;;;2268726;61;20383;-63
2023/04/07 07:55:13;0.00;0.00;0.62;0.00;0.00;0.62;3.70;2.60;;;23.30;20.30;;;;;;2265146;61;20412;-63
2023/04/07 07:57:58;0.00;0.00;0.62;0.00;0.00;0.62;3.00;2.17;;;23.30;20.30;;;;;;2268604;61;20395;-61
2023/04/07 08:00:43;0.00;0.00;0.62;0.00;0.00;0.62;2.57;2.00;;;23.30;20.30;;;;;;2268608;61;20719;-63
2023/04/07 08:03:27;0.00;0.00;0.62;0.00;0.00;0.62;2.50;2.30;;;23.30;20.30;;;;;;2268131;61;20441;-60
2023/04/07 08:06:12;0.00;0.00;0.62;0.00;0.00;0.62;2.37;2.13;;;23.30;20.40;;;;;;2268659;61;20363;-63
2023/04/07 08:08:57;0.00;0.00;0.62;0.00;0.00;0.62;3.10;2.33;;;23.30;20.40;;;;;;2268621;61;20443;-62
2023/04/07 08:11:44;0.00;0.00;0.62;0.00;0.00;0.62;2.80;2.23;;;23.30;20.30;;;;;;2268920;61;20394;-60
2023/04/07 08:14:29;0.00;0.00;0.62;0.00;0.00;0.62;3.10;1.93;;;23.30;20.30;;;;;;2268335;61;20371;-62
2023/04/07 08:17:16;0.00;0.00;0.62;0.00;0.00;0.62;2.33;2.10;;;23.30;20.30;;;;;;2268262;61;20421;-62
2023/04/07 08:20:02;0.00;0.00;0.62;0.00;0.00;0.62;2.90;2.00;;;23.30;20.30;;;;;;2268090;61;20390;-62
2023/04/07 08:22:47;0.00;0.00;0.62;0.00;0.00;0.62;2.60;2.10;;;23.30;20.40;;;;;;2268764;61;20459;-61
2023/04/07 08:25:32;0.00;0.00;0.62;0.00;0.00;0.62;3.10;2.00;;;23.30;20.30;;;;;;2268318;61;20926;-63
2023/04/07 08:28:18;0.00;0.00;0.62;0.00;0.00;0.62;3.10;2.47;;;23.30;20.40;;;;;;2268652;61;20906;-62
2023/04/07 08:31:02;0.00;0.00;0.62;0.00;0.00;0.62;2.70;2.37;;;23.30;20.40;;;;;;2268554;61;20428;-63
2023/04/07 08:33:47;0.00;0.00;0.62;0.00;0.00;0.62;2.83;2.47;;;23.30;20.40;;;;;;2268944;61;20383;-64
2023/04/07 08:36:32;0.00;0.00;0.62;0.00;0.00;0.62;2.50;2.13;;;23.30;20.40;;;;;;2268673;61;20362;-61
2023/04/07 08:39:16;0.00;0.00;0.62;0.00;0.00;0.62;2.40;2.13;;;23.30;20.90;;;;;;2267833;61;20419;-63
2023/04/07 08:42:01;0.00;0.00;0.62;0.00;0.00;0.62;3.57;2.40;;;23.30;20.30;;;;;;2268688;61;20363;-63
2023/04/07 08:44:50;0.00;0.00;0.62;0.00;0.00;0.62;3.23;2.93;;;23.30;20.40;;;;;;2268738;61;20781;-63
2023/04/07 08:47:37;0.00;0.00;0.62;0.00;0.00;0.62;3.23;2.93;;;23.30;20.40;;;;;;2268321;61;20927;-63
2023/04/07 08:50:24;0.00;0.00;0.62;0.00;0.00;0.62;3.20;2.77;;;23.30;20.40;;;;;;2268127;61;20451;-65
2023/04/07 08:53:11;0.00;0.00;0.62;0.00;0.00;0.62;3.53;3.20;;;23.30;20.40;;;;;;2268730;61;20375;-62
2023/04/07 08:55:57;0.00;0.00;0.62;0.00;0.00;0.62;3.10;2.80;;;23.30;20.40;;;;;;2268736;61;20375;-63
2023/04/07 08:58:43;0.00;0.00;0.62;0.00;0.00;0.62;4.50;3.30;;;23.30;20.40;;;;;;2268502;61;20978;-61
2023/04/07 09:01:30;0.00;0.00;0.62;0.00;0.00;0.62;3.87;3.40;;;23.30;20.40;;;;;;2268354;61;20408;-62
2023/04/07 09:04:16;0.00;0.00;0.62;0.00;0.00;0.62;3.63;3.03;;;23.30;20.40;;;;;;2268615;61;20367;-62
2023/04/07 09:07:01;0.00;0.00;0.62;0.00;0.00;0.62;5.00;4.20;;;23.30;20.40;;;;;;2268394;61;20379;-60
2023/04/07 09:09:46;0.00;0.00;0.62;0.00;0.00;0.62;3.70;3.30;;;23.30;20.40;;;;;;2267839;61;20359;-63
2023/04/07 09:12:32;0.00;0.00;0.62;0.00;0.00;0.62;4.43;3.50;;;23.30;20.30;;;;;;2265105;61;20409;-60
2023/04/07 09:15:17;0.00;0.00;0.62;0.00;0.00;0.62;4.03;3.50;;;23.30;20.40;;;;;;2268864;61;20899;-64
2023/04/07 09:18:03;0.00;0.00;0.62;0.00;0.00;0.62;5.70;3.90;;;23.30;20.30;;;;;;2268844;61;20437;-63
2023/04/07 09:20:56;0.00;0.00;0.62;0.00;0.00;0.62;4.67;4.03;;;23.30;20.30;;;;;;2268113;61;20380;-63
2023/04/07 09:23:42;0.00;0.00;0.62;0.00;0.00;0.62;5.63;4.30;;;23.30;20.30;;;;;;2268204;61;20836;-64
2023/04/07 09:26:29;0.00;0.00;0.62;0.00;0.00;0.62;3.93;3.53;;;23.40;20.40;;;;;;2268415;61;20486;-63
2023/04/07 09:29:19;0.00;0.00;0.62;0.00;0.00;0.62;4.80;3.83;;;23.40;20.40;;;;;;2268384;61;20350;-63
2023/04/07 09:32:05;0.00;0.00;0.62;0.00;0.00;0.62;5.40;4.40;;;23.40;20.40;;;;;;2268189;61;20405;-63
2023/04/07 09:34:58;0.00;0.00;0.62;0.00;0.00;0.62;3.87;3.40;;;23.40;20.40;;;;;;2268301;61;20382;-62
2023/04/07 09:37:43;0.00;0.00;0.62;0.00;0.00;0.62;5.17;3.70;;;23.40;20.40;;;;;;2268905;61;20911;-62
2023/04/07 09:40:28;0.00;0.00;0.62;0.00;0.00;0.62;4.40;3.83;;;23.40;20.40;;;;;;2267918;61;20939;-62
2023/04/07 09:43:16;0.00;0.00;0.62;0.00;0.00;0.62;4.73;4.17;;;23.40;20.50;;;;;;2268494;61;20366;-62
2023/04/07 09:46:10;0.00;0.00;0.62;0.00;0.00;0.62;4.90;4.40;;;23.40;20.40;;;;;;2268261;61;20557;-60
2023/04/07 09:49:06;0.00;0.00;0.62;0.00;0.00;0.62;5.27;4.37;;;23.40;20.50;;;;;;2267923;61;20900;-62
2023/04/07 09:51:57;0.00;0.00;0.62;0.00;0.00;0.62;7.40;5.30;;;23.40;20.40;;;;;;2268599;61;20656;-63
2023/04/07 09:54:41;0.00;0.00;0.62;0.00;0.00;0.62;5.93;4.90;;;23.40;20.50;;;;;;2268090;61;20391;-63
2023/04/07 09:57:26;0.00;0.00;0.62;0.00;0.00;0.62;6.33;5.00;;;23.40;20.40;;;;;;2268324;61;20449;-63
2023/04/07 10:00:12;0.00;0.00;0.62;0.00;0.00;0.62;6.13;5.30;;;23.50;20.50;;;;;;2267603;61;20399;-61
2023/04/07 10:03:00;0.00;0.00;0.62;0.00;0.00;0.62;5.67;5.03;;;23.40;20.50;;;;;;2268305;61;20413;-63
2023/04/07 10:05:45;0.00;0.00;0.62;0.00;0.00;0.62;6.67;5.67;;;23.50;20.50;;;;;;2268396;61;20358;-63
2023/04/07 10:08:35;0.00;0.00;0.62;0.00;0.00;0.62;6.47;5.07;;;23.50;20.50;;;;;;2268026;61;20939;-63
2023/04/07 10:11:20;0.00;0.00;0.62;0.00;0.00;0.62;6.13;5.53;;;23.50;20.50;;;;;;2268399;61;20826;-63
2023/04/07 10:14:05;0.00;0.00;0.62;0.00;0.00;0.62;5.33;4.83;;;23.50;20.50;;;;;;2268396;61;20919;-67
2023/04/07 10:16:50;0.00;0.00;0.62;0.00;0.00;0.62;5.90;5.17;;;23.50;20.50;;;;;;2267977;61;20399;-62
2023/04/07 10:19:36;0.00;0.00;0.62;0.00;0.00;0.62;6.57;5.73;;;23.50;20.50;;;;;;2268137;61;20390;-62
2023/04/07 10:22:21;0.00;0.00;0.62;0.00;0.00;0.62;7.73;5.10;;;23.60;20.60;;;;;;2268002;61;20367;-62
2023/04/07 10:25:10;0.00;0.00;0.62;0.00;0.00;0.62;6.33;5.10;;;23.60;20.60;;;;;;2268364;61;20443;-62
2023/04/07 10:27:59;0.00;0.00;0.62;0.00;0.00;0.62;5.60;5.10;;;23.60;20.60;;;;;;2268509;61;20383;-63
2023/04/07 10:30:46;0.00;0.00;0.62;0.00;0.00;0.62;6.13;5.53;;;23.60;20.60;;;;;;2267589;61;20990;-67
2023/04/07 10:33:48;0.00;0.00;0.62;0.00;0.00;0.62;5.33;4.67;;;23.60;20.60;;;;;;2268267;61;20363;-63
2023/04/07 10:36:33;0.00;0.00;0.62;0.00;0.00;0.62;5.33;4.83;;;23.60;20.60;;;;;;2268373;61;20393;-62
2023/04/07 10:39:20;0.00;0.00;0.62;0.00;0.00;0.62;5.83;5.20;;;23.60;20.70;;;;;;2267746;61;20395;-60
2023/04/07 10:42:06;0.00;0.00;0.62;0.00;0.00;0.62;6.40;5.73;;;23.60;20.60;;;;;;2268574;61;20644;-63
2023/04/07 10:44:51;0.00;0.00;0.62;0.00;0.00;0.62;5.20;4.70;;;23.70;21.20;;;;;;2267965;61;20393;-63
2023/04/07 10:48:11;0.00;0.00;0.62;0.00;0.00;0.62;6.57;5.13;;;23.70;20.70;;;;;;2268475;61;20425;-63
2023/04/07 10:51:14;0.00;0.00;0.62;0.00;0.00;0.62;5.57;4.60;;;23.70;20.70;;;;;;2268042;61;20363;-67
2023/04/07 10:54:19;0.00;0.00;0.62;0.00;0.00;0.62;5.50;4.63;;;23.70;20.70;;;;;;2267972;61;20362;-62
2023/04/07 10:57:13;0.00;0.00;0.62;0.00;0.00;0.62;5.70;5.10;;;23.80;20.80;;;;;;2268191;61;20382;-63
2023/04/07 11:00:17;0.00;0.00;0.62;0.00;0.00;0.62;5.30;4.80;;;23.80;20.80;;;;;;2267467;61;20919;-63
2023/04/07 11:03:14;0.00;0.00;0.62;0.00;0.00;0.62;4.93;4.43;;;23.80;20.80;;;;;;2268292;61;20656;-62